Terminal Aerodrome Forecast
Issued by NWS

Home | Current Version | Previous Version | Text Only | Print | Product List | Glossary On
Versions: 1 2 3 4 5 6 7 8 9 10 11 12 13 14 15
000
FTUS45 KSLC 201735
TAFLGU
TAF
KLGU 201735Z 2018/2118 22010G17KT P6SM BKN050
     FM202200 22008KT P6SM -RA BKN035 BKN050
     FM210100 16010G16KT 5SM -RA BR OVC025
     FM210600 18014G22KT P6SM BKN070=

USA.gov is the U.S. government's official web portal to all federal, state and local government web resources and services.